Time;durP1;ratioP1;P1;durP2;ratioP2;P2;SDS_P1;SDS_P2;PMS_P1;PMS_P2;Temp;Humidity;BMP_temperature;BMP_pressure;BME280_temperature;BME280_humidity;BME280_pressure;Samples;Min_cycle;Max_cycle;Signal;HPM_P1;HPM_P2
2022/12/31 00:00:07;;;;;;;;;0.00;0.00;;;;;15.65;100.00;100452.84;5080727;27;46308;-76
2022/12/31 00:02:32;;;;;;;;;0.75;0.50;;;;;15.62;100.00;100456.78;5079724;28;48377;-76
2022/12/31 00:04:58;;;;;;;;;1.25;1.25;;;;;15.60;100.00;100464.22;5079705;28;45383;-75
2022/12/31 00:07:23;;;;;;;;;2.00;1.50;;;;;15.71;100.00;100464.56;5087415;27;45349;-76
2022/12/31 00:09:49;;;;;;;;;0.00;0.00;;;;;15.70;100.00;100461.06;5080357;28;45544;-76
2022/12/31 00:12:14;;;;;;;;;2.25;1.00;;;;;15.72;100.00;100471.56;5081151;27;45332;-75
2022/12/31 00:14:39;;;;;;;;;2.00;1.25;;;;;15.70;100.00;100473.63;5080429;27;45361;-75
2022/12/31 00:17:05;;;;;;;;;2.00;1.00;;;;;15.78;100.00;100479.56;5080532;27;45473;-77
2022/12/31 00:19:30;;;;;;;;;1.00;1.00;;;;;15.78;100.00;100492.16;5074064;27;45818;-74
2022/12/31 00:21:55;;;;;;;;;1.75;1.00;;;;;15.75;100.00;100469.25;5076320;28;46076;-74
2022/12/31 00:24:21;;;;;;;;;1.00;1.00;;;;;15.78;100.00;100482.22;5079343;28;45412;-74
2022/12/31 00:26:46;;;;;;;;;1.50;1.00;;;;;15.71;100.00;100462.69;5080236;27;45504;-75
2022/12/31 00:29:11;;;;;;;;;0.75;0.00;;;;;15.76;100.00;100476.28;5079198;27;45373;-74
2022/12/31 00:31:37;;;;;;;;;2.00;1.00;;;;;15.77;100.00;100466.38;5080089;27;46325;-74
2022/12/31 00:34:03;;;;;;;;;2.00;0.67;;;;;15.82;100.00;100487.16;5079271;28;45804;-75
2022/12/31 00:36:31;;;;;;;;;1.00;1.00;;;;;15.83;100.00;100476.22;5081295;27;45290;-75
2022/12/31 00:38:59;;;;;;;;;0.00;0.00;;;;;15.76;100.00;100465.56;5081031;27;45632;-74
2022/12/31 00:41:25;;;;;;;;;1.00;1.00;;;;;15.82;100.00;100481.81;5080580;28;45397;-74
2022/12/31 00:43:51;;;;;;;;;0.25;0.25;;;;;15.83;100.00;100481.59;5079519;28;45302;-74
2022/12/31 00:46:17;;;;;;;;;0.25;0.25;;;;;15.89;100.00;100501.34;5081198;27;45341;-74
2022/12/31 00:48:42;;;;;;;;;1.00;0.75;;;;;15.94;100.00;100506.88;5080433;28;46087;-74
2022/12/31 00:51:11;;;;;;;;;0.00;0.00;;;;;15.94;100.00;100512.25;5081904;27;45220;-75
2022/12/31 00:53:37;;;;;;;;;1.25;1.00;;;;;15.98;100.00;100499.28;5080858;28;45372;-76
2022/12/31 00:56:05;;;;;;;;;0.50;0.00;;;;;16.02;100.00;100517.38;5081148;27;45463;-74
2022/12/31 00:58:32;;;;;;;;;0.75;0.25;;;;;16.02;100.00;100497.81;5078975;28;46182;-75
2022/12/31 01:00:57;;;;;;;;;0.00;0.00;;;;;15.97;100.00;100487.72;5080881;28;45274;-75
2022/12/31 01:03:23;;;;;;;;;0.00;0.00;;;;;16.01;100.00;100498.81;5080160;27;45260;-75
2022/12/31 01:05:49;;;;;;;;;1.00;1.00;;;;;16.02;100.00;100482.53;5081460;27;45270;-75
2022/12/31 01:08:15;;;;;;;;;2.00;0.00;;;;;16.03;100.00;100484.19;5084510;27;45892;-74
2022/12/31 01:13:25;;;;;;;;;0.00;0.00;;;;;16.12;100.00;100498.13;5080127;28;45369;-74
2022/12/31 01:15:50;;;;;;;;;0.00;0.00;;;;;16.07;100.00;100497.16;5079273;28;45275;-76
2022/12/31 01:18:15;;;;;;;;;0.00;0.00;;;;;16.17;100.00;100521.63;5080578;27;45295;-75
2022/12/31 01:20:42;;;;;;;;;1.00;1.00;;;;;16.19;100.00;100510.69;5079935;27;45743;-74
2022/12/31 01:23:09;;;;;;;;;1.25;0.00;;;;;16.24;100.00;100524.25;5079069;28;45497;-76
2022/12/31 01:25:40;;;;;;;;;0.25;0.00;;;;;16.26;100.00;100538.25;5080295;27;45409;-75
2022/12/31 01:28:07;;;;;;;;;2.00;0.00;;;;;16.26;100.00;100532.91;5078808;28;46166;-74
2022/12/31 01:30:33;;;;;;;;;0.00;0.00;;;;;16.30;100.00;100539.47;5079880;27;45524;-75
2022/12/31 01:32:58;;;;;;;;;0.00;0.00;;;;;16.30;100.00;100544.81;5080418;27;45207;-75
2022/12/31 01:35:24;;;;;;;;;0.50;0.00;;;;;16.28;100.00;100528.13;5079020;28;45458;-74
2022/12/31 01:37:49;;;;;;;;;0.75;0.75;;;;;16.26;100.00;100549.78;5079018;28;47230;-75
2022/12/31 01:40:15;;;;;;;;;0.00;0.00;;;;;16.32;100.00;100529.34;5079809;27;46111;-74
2022/12/31 01:42:40;;;;;;;;;1.00;0.50;;;;;16.26;100.00;100525.66;5079921;27;45352;-76
2022/12/31 01:45:10;;;;;;;;;2.00;0.25;;;;;16.37;100.00;100542.13;5079892;27;45261;-75
2022/12/31 01:47:44;;;;;;;;;0.00;0.00;;;;;16.31;100.00;100529.56;5080051;28;45294;-75
2022/12/31 01:50:29;;;;;;;;;1.00;1.00;;;;;16.27;100.00;100530.00;5078183;28;48388;-75
2022/12/31 01:52:59;;;;;;;;;0.00;0.00;;;;;16.37;100.00;100552.84;5079872;27;45259;-75
2022/12/31 01:55:33;;;;;;;;;0.50;0.50;;;;;16.36;100.00;100549.31;5078870;28;45554;-75
2022/12/31 01:58:06;;;;;;;;;0.50;0.50;;;;;16.35;100.00;100544.19;5079517;27;45326;-75
2022/12/31 02:00:32;;;;;;;;;2.00;2.00;;;;;16.42;100.00;100542.25;5079656;27;45605;-75
2022/12/31 02:02:58;;;;;;;;;3.00;0.00;;;;;16.47;100.00;100544.28;5079545;27;45331;-75
2022/12/31 02:05:34;;;;;;;;;0.00;0.00;;;;;16.47;100.00;100530.88;5078549;28;45419;-76
2022/12/31 02:07:59;;;;;;;;;0.50;0.00;;;;;16.47;100.00;100546.97;5079742;27;45444;-75
2022/12/31 02:10:25;;;;;;;;;0.50;0.50;;;;;16.53;100.00;100551.47;5079580;27;45909;-74
2022/12/31 02:12:51;;;;;;;;;0.00;0.00;;;;;16.61;100.00;100545.00;5079550;28;45421;-76
2022/12/31 02:15:21;;;;;;;;;0.00;0.00;;;;;16.61;100.00;100545.81;5079150;28;45333;-74
2022/12/31 02:18:04;;;;;;;;;0.00;0.00;;;;;16.67;100.00;100549.47;5078015;28;46337;-76
2022/12/31 02:20:38;;;;;;;;;2.00;0.50;;;;;16.72;100.00;100554.19;5079068;27;45231;-76
2022/12/31 02:23:25;;;;;;;;;0.00;0.00;;;;;16.76;100.00;100561.59;5079708;28;45218;-76
2022/12/31 02:26:02;;;;;;;;;0.00;0.00;;;;;16.79;100.00;100553.09;5078099;28;45394;-76
2022/12/31 02:28:56;;;;;;;;;0.00;0.00;;;;;16.81;100.00;100552.88;5078772;27;45953;-76
2022/12/31 02:31:35;;;;;;;;;0.00;0.00;;;;;16.71;100.00;100539.97;5079417;28;46505;-75
2022/12/31 02:34:10;;;;;;;;;0.00;0.00;;;;;16.86;100.00;100560.28;5079138;27;45316;-75
2022/12/31 02:36:41;;;;;;;;;0.00;0.00;;;;;16.84;100.00;100556.97;5079199;27;45445;-75
2022/12/31 02:39:08;;;;;;;;;0.00;0.00;;;;;16.83;100.00;100552.66;5077759;28;46240;-77
2022/12/31 02:41:49;;;;;;;;;0.00;0.00;;;;;16.83;100.00;100539.25;5078443;27;45494;-75
2022/12/31 02:44:28;;;;;;;;;0.00;0.00;;;;;16.91;100.00;100577.34;5078988;27;45346;-75
2022/12/31 02:47:06;;;;;;;;;3.50;0.00;;;;;16.93;100.00;100577.13;5077893;28;45604;-75
2022/12/31 02:49:53;;;;;;;;;0.00;0.00;;;;;16.94;100.00;100568.03;5078997;27;45376;-76
2022/12/31 02:52:49;;;;;;;;;1.00;1.00;;;;;16.91;100.00;100582.72;5077703;28;47355;-75
2022/12/31 02:55:31;;;;;;;;;0.50;0.50;;;;;16.88;100.00;100567.06;5079202;28;45362;-75
2022/12/31 02:58:17;;;;;;;;;0.00;0.00;;;;;16.86;100.00;100581.75;5079079;27;45400;-76
2022/12/31 03:03:36;;;;;;;;;1.00;1.00;;;;;16.89;100.00;100573.25;5067860;28;45326;-76
2022/12/31 03:06:03;;;;;;;;;0.75;0.75;;;;;16.87;100.00;100568.09;5078978;27;45365;-75
2022/12/31 03:08:29;;;;;;;;;0.00;0.00;;;;;16.89;100.00;100590.19;5079230;27;45298;-75
2022/12/31 03:10:55;;;;;;;;;0.00;0.00;;;;;16.90;100.00;100591.00;5078747;27;45219;-77
2022/12/31 03:13:22;;;;;;;;;0.00;0.00;;;;;16.83;100.00;100584.88;5078599;27;46056;-76
2022/12/31 03:15:48;;;;;;;;;0.00;0.00;;;;;16.90;100.00;100604.41;5078518;27;45412;-77
2022/12/31 03:18:15;;;;;;;;;0.25;0.25;;;;;16.85;100.00;100580.91;5077481;28;45373;-76
2022/12/31 03:23:37;;;;;;;;;0.00;0.00;;;;;16.88;100.00;100596.56;5078684;28;45860;-76
2022/12/31 03:26:10;;;;;;;;;0.00;0.00;;;;;16.89;100.00;100605.47;5078923;27;45216;-76
2022/12/31 03:28:39;;;;;;;;;2.50;0.50;;;;;16.88;100.00;100623.41;5080864;27;45397;-76
2022/12/31 03:31:06;;;;;;;;;0.00;0.00;;;;;16.86;100.00;100606.72;5081711;27;45677;-76
2022/12/31 03:33:37;;;;;;;;;1.50;1.00;;;;;16.79;100.00;100600.56;5081181;28;48719;-76
2022/12/31 03:36:11;;;;;;;;;0.00;0.00;;;;;16.87;100.00;100615.59;5082783;27;45247;-75
2022/12/31 03:38:36;;;;;;;;;2.25;1.50;;;;;16.81;100.00;100608.41;5082826;27;45291;-76
2022/12/31 03:41:02;;;;;;;;;0.50;0.50;;;;;16.84;100.00;100602.59;5082505;27;45318;-76
2022/12/31 03:43:27;;;;;;;;;0.25;0.25;;;;;16.82;100.00;100596.66;5081751;27;46313;-78
2022/12/31 03:45:53;;;;;;;;;0.50;0.00;;;;;16.84;100.00;100613.34;5075633;27;45483;-77
2022/12/31 03:48:21;;;;;;;;;0.75;0.25;;;;;16.85;100.00;100626.53;5062286;28;45648;-75
2022/12/31 03:50:47;;;;;;;;;0.50;0.50;;;;;16.78;100.00;100596.25;5078173;28;45324;-76
2022/12/31 03:53:13;;;;;;;;;2.50;1.00;;;;;16.72;100.00;100600.63;5081731;28;45398;-75
2022/12/31 03:55:38;;;;;;;;;1.25;1.25;;;;;16.68;100.00;100582.50;5081782;28;45381;-77
2022/12/31 03:58:03;;;;;;;;;1.00;1.00;;;;;16.78;100.00;100639.19;5081717;27;45315;-75
2022/12/31 04:00:29;;;;;;;;;3.00;1.25;;;;;16.74;100.00;100625.41;5081545;27;45306;-77
2022/12/31 04:02:54;;;;;;;;;1.75;1.00;;;;;16.70;100.00;100608.06;5081544;27;46325;-77
2022/12/31 04:05:21;;;;;;;;;2.00;0.50;;;;;16.75;100.00;100600.19;5080369;28;45485;-76
2022/12/31 04:07:46;;;;;;;;;1.00;1.00;;;;;16.71;100.00;100608.91;5092696;27;45248;-75
2022/12/31 04:10:14;;;;;;;;;2.00;2.00;;;;;16.74;100.00;100622.72;5081556;28;45253;-76
2022/12/31 04:12:39;;;;;;;;;1.00;1.00;;;;;16.68;100.00;100603.97;5081424;27;46020;-76
2022/12/31 04:15:06;;;;;;;;;2.00;1.25;;;;;16.64;100.00;100607.09;5079988;28;45245;-76
2022/12/31 04:17:32;;;;;;;;;1.50;1.50;;;;;16.68;100.00;100618.22;5081658;27;45217;-76
2022/12/31 04:19:57;;;;;;;;;1.25;1.00;;;;;16.67;100.00;100616.56;5080985;27;45378;-76
2022/12/31 04:22:22;;;;;;;;;1.00;1.00;;;;;16.66;100.00;100620.28;5080096;28;47197;-76
2022/12/31 04:24:48;;;;;;;;;0.75;0.75;;;;;16.58;100.00;100589.19;5081201;27;45470;-74
2022/12/31 04:27:14;;;;;;;;;2.25;1.75;;;;;16.62;100.00;100613.72;5081616;27;45507;-75
2022/12/31 04:29:39;;;;;;;;;4.00;3.00;;;;;16.58;100.00;100601.78;5080784;27;45390;-77
2022/12/31 04:32:06;;;;;;;;;3.50;2.25;;;;;16.60;100.00;100605.88;5081163;27;46138;-76
2022/12/31 04:34:32;;;;;;;;;2.50;2.00;;;;;16.57;100.00;100575.97;5081199;27;45364;-76
2022/12/31 04:36:58;;;;;;;;;2.00;2.00;;;;;16.51;100.00;100599.97;5081185;28;45291;-75
2022/12/31 04:39:24;;;;;;;;;0.25;0.25;;;;;16.51;100.00;100591.94;5080992;27;45260;-76
2022/12/31 04:41:49;;;;;;;;;2.00;0.75;;;;;16.51;100.00;100601.81;5080729;27;45211;-77
2022/12/31 04:44:15;;;;;;;;;3.25;2.25;;;;;16.50;100.00;100598.34;5079400;28;45846;-77
2022/12/31 04:46:41;;;;;;;;;2.25;2.25;;;;;16.46;100.00;100613.19;5081200;27;45270;-74
2022/12/31 04:49:06;;;;;;;;;4.25;2.25;;;;;16.47;100.00;100625.59;5080850;27;45272;-74
2022/12/31 04:51:32;;;;;;;;;2.00;2.00;;;;;16.48;100.00;100616.50;5079741;28;47156;-76
2022/12/31 04:53:58;;;;;;;;;2.75;2.00;;;;;16.47;100.00;100620.22;5080627;27;45456;-77
2022/12/31 04:56:24;;;;;;;;;3.25;3.00;;;;;16.43;100.00;100592.16;5081099;27;45284;-76
2022/12/31 04:58:50;;;;;;;;;2.00;1.75;;;;;16.49;100.00;100617.34;5080409;27;45329;-76
2022/12/31 05:01:15;;;;;;;;;2.00;2.00;;;;;16.50;100.00;100614.44;5080539;27;45476;-76
2022/12/31 05:03:41;;;;;;;;;2.50;2.50;;;;;16.56;100.00;100625.31;5079304;27;45429;-75
2022/12/31 05:06:27;;;;;;;;;5.25;2.25;;;;;16.61;100.00;100639.72;5084325;27;45338;-77
2022/12/31 05:08:52;;;;;;;;;1.25;1.25;;;;;16.51;100.00;100604.50;5068118;28;45560;-76
2022/12/31 05:11:17;;;;;;;;;4.00;1.00;;;;;16.63;100.00;100634.13;5080433;27;45708;-77
2022/12/31 05:13:43;;;;;;;;;2.25;2.00;;;;;16.53;100.00;100618.53;5080449;27;45214;-77
2022/12/31 05:16:08;;;;;;;;;2.00;2.00;;;;;16.53;100.00;100615.84;5080639;27;45155;-77
2022/12/31 05:18:35;;;;;;;;;1.25;1.00;;;;;16.58;100.00;100631.31;5079403;28;46087;-75
2022/12/31 05:21:01;;;;;;;;;4.00;3.00;;;;;16.51;100.00;100632.16;5079993;27;46756;-77
2022/12/31 05:23:26;;;;;;;;;2.50;2.50;;;;;16.58;100.00;100647.41;5080581;27;45222;-77
2022/12/31 05:25:52;;;;;;;;;2.00;2.00;;;;;16.59;100.00;100641.81;5080271;27;45356;-76
2022/12/31 05:28:17;;;;;;;;;2.00;2.00;;;;;16.59;100.00;100647.19;5078729;28;46886;-76
2022/12/31 05:30:44;;;;;;;;;4.25;3.00;;;;;16.58;100.00;100647.41;5080236;27;45314;-76
2022/12/31 05:33:09;;;;;;;;;3.25;3.00;;;;;16.54;100.00;100652.34;5080360;28;45412;-75
2022/12/31 05:35:35;;;;;;;;;2.75;2.75;;;;;16.56;100.00;100644.09;5080354;27;45386;-76
2022/12/31 05:38:01;;;;;;;;;2.00;0.75;;;;;16.48;100.00;100654.06;5080154;27;45483;-76
2022/12/31 05:40:27;;;;;;;;;3.00;2.00;;;;;16.49;100.00;100655.69;5078516;28;48064;-76
2022/12/31 05:42:53;;;;;;;;;1.25;1.00;;;;;16.52;100.00;100667.84;5078720;28;45347;-75
2022/12/31 05:45:19;;;;;;;;;1.00;1.00;;;;;16.46;100.00;100666.84;5080059;28;45232;-75
2022/12/31 05:47:45;;;;;;;;;2.25;2.25;;;;;16.49;100.00;100674.47;5080083;27;45286;-75
2022/12/31 05:50:16;;;;;;;;;3.50;2.00;;;;;16.50;100.00;100675.28;5079335;28;46806;-76
2022/12/31 05:52:43;;;;;;;;;1.75;1.75;;;;;16.51;100.00;100676.94;5080162;27;45336;-75
2022/12/31 05:55:09;;;;;;;;;3.00;1.50;;;;;16.45;100.00;100673.25;5080086;27;45280;-75
2022/12/31 05:57:35;;;;;;;;;2.00;0.50;;;;;16.41;100.00;100669.38;5078433;28;46083;-76
2022/12/31 06:00:02;;;;;;;;;2.00;0.50;;;;;16.50;100.00;100683.34;5079308;27;47093;-75
2022/12/31 06:02:27;;;;;;;;;2.50;2.00;;;;;16.43;100.00;100672.63;5078777;28;45452;-76
2022/12/31 06:04:53;;;;;;;;;2.25;2.00;;;;;16.45;100.00;100680.47;5079887;27;45309;-75
2022/12/31 06:07:18;;;;;;;;;4.00;4.00;;;;;16.48;100.00;100680.88;5083618;27;45248;-75
2022/12/31 06:09:43;;;;;;;;;1.67;1.00;;;;;16.44;100.00;100671.63;5079651;27;45311;-74
2022/12/31 06:12:09;;;;;;;;;1.25;1.25;;;;;16.41;100.00;100670.16;5079791;27;45401;-75
2022/12/31 06:14:34;;;;;;;;;1.00;1.00;;;;;16.43;100.00;100669.97;5078152;28;45337;-74
2022/12/31 06:17:00;;;;;;;;;3.25;2.75;;;;;16.47;100.00;100675.72;5079723;27;45476;-75
2022/12/31 06:19:25;;;;;;;;;0.75;0.75;;;;;16.50;100.00;100680.66;5077993;28;47486;-74
2022/12/31 06:21:51;;;;;;;;;4.00;3.00;;;;;16.44;100.00;100673.47;5079571;27;45307;-75
2022/12/31 06:24:16;;;;;;;;;3.00;3.00;;;;;16.50;100.00;100696.75;5079758;27;45310;-74
2022/12/31 06:26:42;;;;;;;;;3.00;3.00;;;;;16.54;100.00;100708.69;5079544;27;45633;-75
2022/12/31 06:29:07;;;;;;;;;2.00;2.00;;;;;16.53;100.00;100704.38;5077561;28;48332;-75
2022/12/31 06:31:33;;;;;;;;;4.00;3.00;;;;;16.47;100.00;100695.34;5079531;27;45236;-74
2022/12/31 06:33:58;;;;;;;;;3.00;3.00;;;;;16.45;100.00;100694.72;5079465;28;45212;-75
2022/12/31 06:36:23;;;;;;;;;3.67;3.00;;;;;16.55;100.00;100714.91;5079480;27;45265;-75
2022/12/31 06:38:49;;;;;;;;;2.00;2.00;;;;;16.52;100.00;100718.81;5077992;28;47163;-75
2022/12/31 06:41:15;;;;;;;;;2.25;2.25;;;;;16.56;100.00;100721.91;5072457;27;45239;-74
2022/12/31 06:43:41;;;;;;;;;5.33;3.00;;;;;16.60;100.00;100720.41;5071908;27;45503;-75
2022/12/31 06:46:10;;;;;;;;;3.00;3.00;;;;;16.63;100.00;100728.03;5078843;27;45325;-75
2022/12/31 06:48:35;;;;;;;;;3.75;2.75;;;;;16.65;100.00;100717.94;5079043;27;46133;-75
2022/12/31 06:51:06;;;;;;;;;3.00;3.00;;;;;16.66;100.00;100725.75;5079350;28;45424;-75
2022/12/31 06:53:32;;;;;;;;;2.00;2.00;;;;;16.63;100.00;100714.63;5079319;28;45288;-75
2022/12/31 06:55:58;;;;;;;;;2.50;2.25;;;;;16.64;100.00;100711.72;5079217;27;45526;-75
2022/12/31 06:58:23;;;;;;;;;2.00;2.00;;;;;16.59;100.00;100705.38;5078793;27;45515;-74
2022/12/31 07:01:34;;;;;;;;;4.00;4.00;;;;;16.72;100.00;100732.13;5079170;27;45416;-77
2022/12/31 07:04:18;;;;;;;;;2.00;2.00;;;;;16.73;100.00;100731.06;5069859;28;45349;-77
2022/12/31 07:06:53;;;;;;;;;2.75;2.75;;;;;16.73;100.00;100736.44;5087146;27;45521;-77
2022/12/31 07:09:32;;;;;;;;;2.00;2.00;;;;;16.72;100.00;100745.53;5082559;27;45286;-77
2022/12/31 07:12:04;;;;;;;;;3.00;3.00;;;;;16.70;100.00;100747.59;5082539;27;45339;-76
2022/12/31 07:14:52;;;;;;;;;5.00;3.00;;;;;16.71;100.00;100748.44;5080748;28;45181;-76
2022/12/31 07:17:41;;;;;;;;;1.75;1.75;;;;;16.70;100.00;100749.50;5082625;28;45500;-75
2022/12/31 07:20:16;;;;;;;;;2.75;2.00;;;;;16.64;100.00;100743.13;5069417;28;45627;-75
2022/12/31 07:22:42;;;;;;;;;1.00;0.75;;;;;16.58;100.00;100736.72;5082080;27;45445;-77
2022/12/31 07:25:12;;;;;;;;;3.67;3.00;;;;;16.65;100.00;100747.44;5082628;27;45397;-77
2022/12/31 07:28:07;;;;;;;;;1.75;1.75;;;;;16.69;100.00;100756.69;5081876;27;45336;-77
2022/12/31 07:30:46;;;;;;;;;3.00;2.67;;;;;16.67;100.00;100748.03;5082288;27;45939;-76
2022/12/31 07:33:14;;;;;;;;;2.00;2.00;;;;;16.65;100.00;100761.66;5070005;28;45350;-76
2022/12/31 07:36:00;;;;;;;;;2.75;2.00;;;;;16.62;100.00;100751.38;5081982;28;45618;-76
2022/12/31 07:38:25;;;;;;;;;2.75;2.75;;;;;16.60;100.00;100750.75;5070921;28;45962;-74
2022/12/31 07:41:15;;;;;;;;;1.50;1.50;;;;;16.62;100.00;100766.66;5077320;28;47004;-77
2022/12/31 07:43:43;;;;;;;;;2.00;2.00;;;;;16.60;100.00;100774.91;5080259;28;45839;-77
2022/12/31 07:46:32;;;;;;;;;3.00;3.00;;;;;16.58;100.00;100770.81;5082223;27;45348;-74
2022/12/31 07:48:58;;;;;;;;;3.33;3.33;;;;;16.53;100.00;100766.88;5079422;28;45506;-74
2022/12/31 07:51:24;;;;;;;;;2.25;2.25;;;;;16.52;100.00;100775.13;5080385;28;47022;-73
2022/12/31 07:53:49;;;;;;;;;3.00;3.00;;;;;16.48;100.00;100766.72;5081624;28;45341;-74
2022/12/31 07:56:14;;;;;;;;;3.00;3.00;;;;;16.48;100.00;100766.72;5081546;27;45368;-74
2022/12/31 07:59:05;;;;;;;;;3.00;3.00;;;;;16.44;100.00;100770.88;5081099;27;45472;-73
2022/12/31 08:01:34;;;;;;;;;4.33;4.33;;;;;16.45;100.00;100766.31;5079955;27;45511;-75
2022/12/31 08:04:21;;;;;;;;;2.00;1.00;;;;;16.44;100.00;100792.31;5071666;28;45364;-75
2022/12/31 08:06:56;;;;;;;;;3.50;3.50;;;;;16.44;100.00;100796.84;5081480;27;45385;-75
2022/12/31 08:09:28;;;;;;;;;2.00;2.00;;;;;16.39;100.00;100805.53;5079772;27;45370;-75
2022/12/31 08:11:58;;;;;;;;;3.75;3.75;;;;;16.42;100.00;100797.06;5080133;27;45462;-74
2022/12/31 08:14:25;;;;;;;;;2.00;2.00;;;;;16.37;100.00;100800.38;5065029;28;46167;-75
2022/12/31 08:16:51;;;;;;;;;7.00;3.00;;;;;16.43;100.00;100809.44;5081592;27;45188;-74
2022/12/31 08:19:28;;;;;;;;;3.00;3.00;;;;;16.42;100.00;100815.84;5080469;27;45268;-74
2022/12/31 08:21:53;;;;;;;;;3.67;3.67;;;;;16.38;100.00;100803.91;5080302;27;45307;-74
2022/12/31 08:24:43;;;;;;;;;3.75;2.75;;;;;16.35;100.00;100791.75;5081183;28;45372;-74
2022/12/31 08:27:17;;;;;;;;;4.75;4.25;;;;;16.28;100.00;100804.31;5081425;28;45550;-75
2022/12/31 08:29:55;;;;;;;;;5.75;4.00;;;;;16.32;100.00;100808.25;5075743;28;45447;-74
2022/12/31 08:32:43;;;;;;;;;3.33;3.00;;;;;16.32;100.00;100808.25;5062704;28;47536;-75
2022/12/31 08:35:46;;;;;;;;;3.50;3.50;;;;;16.31;100.00;100808.47;5076748;28;46046;-74
2022/12/31 08:38:27;;;;;;;;;3.00;2.00;;;;;16.30;100.00;100821.03;5081189;27;45214;-74
2022/12/31 08:41:20;;;;;;;;;6.00;5.67;;;;;16.32;100.00;100816.28;5079737;27;45279;-74
2022/12/31 08:43:55;;;;;;;;;5.00;4.00;;;;;16.30;100.00;100814.84;5070045;28;47733;-75
2022/12/31 08:46:28;;;;;;;;;4.75;4.75;;;;;16.15;100.00;100797.97;5078561;28;45270;-74
2022/12/31 08:48:53;;;;;;;;;3.67;3.67;;;;;16.27;100.00;100803.50;5059144;28;45382;-74
2022/12/31 08:51:24;;;;;;;;;5.25;3.00;;;;;16.36;100.00;100830.09;5069025;28;47369;-74
2022/12/31 08:53:51;;;;;;;;;4.67;4.67;;;;;16.31;100.00;100817.31;5080121;27;45334;-78
2022/12/31 08:56:58;;;;;;;;;1.00;0.67;;;;;16.36;100.00;100833.59;5073037;28;45257;-77
2022/12/31 08:59:42;;;;;;;;;5.33;5.33;;;;;16.37;100.00;100843.28;5072123;27;45542;-78
2022/12/31 09:02:35;;;;;;;;;4.33;4.33;;;;;16.39;100.00;100851.97;5081051;28;45395;-78
2022/12/31 09:05:15;;;;;;;;;7.00;5.00;;;;;16.39;100.00;100857.31;5080721;28;46209;-78
2022/12/31 09:07:47;;;;;;;;;5.25;5.25;;;;;16.40;100.00;100860.81;5081821;27;45995;-78
2022/12/31 09:10:26;;;;;;;;;5.50;5.50;;;;;16.38;100.00;100858.34;5081511;27;45459;-78
2022/12/31 09:13:23;;;;;;;;;4.75;3.00;;;;;16.36;100.00;100848.88;5080171;27;45481;-77
2022/12/31 09:15:56;;;;;;;;;3.75;3.75;;;;;16.37;100.00;100855.91;5080722;27;45271;-79
2022/12/31 09:18:23;;;;;;;;;3.75;3.50;;;;;16.31;100.00;100838.75;5069859;28;45434;-77
2022/12/31 09:20:49;;;;;;;;;4.50;4.50;;;;;16.33;100.00;100836.72;5078932;28;45587;-78
2022/12/31 09:23:14;;;;;;;;;5.50;5.00;;;;;16.31;100.00;100840.63;5082862;27;46209;-78
2022/12/31 09:26:18;;;;;;;;;5.33;5.00;;;;;16.45;100.00;100862.88;5075360;27;45478;-78
2022/12/31 09:28:52;;;;;;;;;6.33;5.67;;;;;16.43;100.00;100854.22;5079892;27;45439;-79
2022/12/31 09:31:36;;;;;;;;;6.67;4.33;;;;;16.48;100.00;100857.09;5079551;28;45382;-78
2022/12/31 09:34:36;;;;;;;;;6.00;6.00;;;;;16.53;100.00;100863.47;5075754;28;45370;-77
2022/12/31 09:37:12;;;;;;;;;5.00;5.00;;;;;16.50;100.00;100853.19;5074942;27;47210;-78
2022/12/31 09:39:46;;;;;;;;;5.00;4.00;;;;;16.58;100.00;100862.81;5074202;28;45511;-75
2022/12/31 09:42:30;;;;;;;;;4.67;4.67;;;;;16.64;100.00;100863.88;5078803;28;45398;-78
2022/12/31 09:45:30;;;;;;;;;4.00;4.00;;;;;16.67;100.00;100868.78;5068041;27;45264;-78
2022/12/31 09:48:26;;;;;;;;;4.25;4.25;;;;;16.60;100.00;100847.34;5051951;28;46300;-77
2022/12/31 09:51:20;;;;;;;;;6.33;5.33;;;;;16.69;100.00;100868.56;5068621;28;45668;-78
2022/12/31 09:53:55;;;;;;;;;4.00;3.00;;;;;16.68;100.00;100878.50;5075313;28;45467;-76
2022/12/31 09:56:38;;;;;;;;;5.00;5.00;;;;;16.69;100.00;100866.72;5085183;27;45440;-77
2022/12/31 09:59:32;;;;;;;;;4.00;4.00;;;;;16.75;100.00;100868.56;5083993;28;46739;-78
2022/12/31 10:02:19;;;;;;;;;5.00;5.00;;;;;16.74;100.00;100856.19;5072836;28;45413;-77
2022/12/31 10:04:57;;;;;;;;;5.00;5.00;;;;;16.78;100.00;100873.50;5079608;28;45318;-77
2022/12/31 10:07:40;;;;;;;;;5.67;4.67;;;;;16.81;100.00;100866.03;5076116;27;45423;-78
2022/12/31 10:10:18;;;;;;;;;5.00;5.00;;;;;16.79;100.00;100863.56;5076683;28;45710;-79
2022/12/31 10:13:15;;;;;;;;;4.50;4.50;;;;;16.86;100.00;100861.72;5090603;27;45430;-77
2022/12/31 10:15:43;;;;;;;;;5.00;5.00;;;;;16.92;100.00;100860.81;5079287;28;45321;-79
2022/12/31 10:18:35;;;;;;;;;4.00;4.00;;;;;16.96;100.00;100847.81;5079844;28;46022;-79
2022/12/31 10:21:33;;;;;;;;;3.67;3.67;;;;;16.99;100.00;100854.59;5080964;28;45451;-80
2022/12/31 10:24:07;;;;;;;;;3.67;3.67;;;;;17.00;100.00;100870.50;5031819;28;45376;-78
2022/12/31 10:26:58;;;;;;;;;4.33;4.00;;;;;17.01;100.00;100850.69;5085731;28;45362;-79
2022/12/31 10:29:39;;;;;;;;;5.00;4.00;;;;;16.99;100.00;100828.59;5082797;27;45496;-80
2022/12/31 10:32:37;;;;;;;;;4.67;3.67;;;;;17.03;100.00;100820.94;5064937;28;46646;-78
2022/12/31 10:35:35;;;;;;;;;2.00;2.00;;;;;17.10;100.00;100847.78;5065992;28;45989;-79
2022/12/31 10:38:19;;;;;;;;;5.33;4.33;;;;;17.12;100.00;100833.09;5086254;27;45306;-78
2022/12/31 10:41:08;;;;;;;;;6.50;4.50;;;;;17.15;100.00;100840.72;5083110;28;47475;-78
2022/12/31 10:44:12;;;;;;;;;4.67;4.67;;;;;17.16;100.00;100826.25;5083960;27;45560;-78
2022/12/31 10:46:43;;;;;;;;;6.67;4.33;;;;;17.19;100.00;100816.94;5057364;28;45314;-77
2022/12/31 10:49:27;;;;;;;;;4.00;4.00;;;;;17.20;100.00;100821.28;5087740;27;45290;-77
2022/12/31 10:52:29;;;;;;;;;4.67;4.67;;;;;17.23;100.00;100820.84;5082928;28;45597;-79
2022/12/31 10:55:25;;;;;;;;;3.67;3.67;;;;;17.27;100.00;100815.88;5079130;28;45559;-76
2022/12/31 10:58:33;;;;;;;;;4.00;3.00;;;;;17.27;100.00;100814.00;5078272;28;45459;-76
2022/12/31 11:01:17;;;;;;;;;4.50;4.50;;;;;17.25;100.00;100813.41;5078384;27;45551;-77
2022/12/31 11:04:03;;;;;;;;;4.25;3.75;;;;;17.26;100.00;100800.78;5087182;28;45236;-78
2022/12/31 11:06:35;;;;;;;;;8.75;6.00;;;;;17.27;100.00;100803.25;5096099;27;46791;-78
2022/12/31 11:09:25;;;;;;;;;4.50;4.50;;;;;17.29;100.00;100803.03;5093418;28;45310;-78
2022/12/31 11:12:08;;;;;;;;;5.50;4.75;;;;;17.34;100.00;100802.38;5088332;28;45452;-78
2022/12/31 11:14:52;;;;;;;;;5.33;5.33;;;;;17.40;100.00;100798.81;5086079;28;45655;-77
2022/12/31 11:17:36;;;;;;;;;7.00;5.75;;;;;17.44;100.00;100791.97;5089384;28;45300;-79
2022/12/31 11:20:29;;;;;;;;;5.00;4.33;;;;;17.46;100.00;100797.94;5088786;27;45398;-78
2022/12/31 11:23:07;;;;;;;;;2.50;2.50;;;;;17.47;100.00;100799.59;5095567;28;45364;-78
2022/12/31 11:25:44;;;;;;;;;3.67;3.67;;;;;17.42;100.00;100791.38;5093574;27;46750;-78
2022/12/31 11:28:40;;;;;;;;;6.00;4.33;;;;;17.37;100.00;100800.09;5089369;28;48036;-77
2022/12/31 11:31:22;;;;;;;;;5.00;4.75;;;;;17.44;100.00;100799.19;5091000;28;46034;-78
2022/12/31 11:34:13;;;;;;;;;4.00;4.00;;;;;17.46;100.00;100786.38;5089682;28;45374;-78
2022/12/31 11:36:53;;;;;;;;;1.50;1.00;;;;;17.47;100.00;100791.53;5078902;28;45393;-78
2022/12/31 11:39:43;;;;;;;;;5.25;5.25;;;;;17.49;100.00;100784.09;5084850;28;48125;-80
2022/12/31 11:42:11;;;;;;;;;4.25;4.25;;;;;17.47;100.00;100791.53;5088420;28;45334;-78
2022/12/31 11:45:01;;;;;;;;;4.50;3.25;;;;;17.50;100.00;100783.03;5089551;27;45322;-77
2022/12/31 11:47:56;;;;;;;;;5.25;5.25;;;;;17.53;100.00;100781.75;5090926;28;45262;-81
2022/12/31 11:51:03;;;;;;;;;3.25;3.00;;;;;17.54;100.00;100794.19;5078948;28;48391;-80
2022/12/31 11:54:06;;;;;;;;;4.25;3.50;;;;;17.59;100.00;100785.44;5081299;27;45469;-82